sensor_id;sensor_type;location;lat;lon;timestamp;P1;durP1;ratioP1;P2;durP2;ratioP2
26106;SDS011;13866;50.748;12.630;2022-12-22T00:01:37;5.97;;;5.27;;
26106;SDS011;13866;50.748;12.630;2022-12-22T00:04:22;5.07;;;5.00;;
26106;SDS011;13866;50.748;12.630;2022-12-22T00:07:06;5.40;;;5.30;;
26106;SDS011;13866;50.748;12.630;2022-12-22T00:09:50;5.60;;;5.40;;
26106;SDS011;13866;50.748;12.630;2022-12-22T00:12:34;5.80;;;5.60;;
26106;SDS011;13866;50.748;12.630;2022-12-22T00:15:18;5.70;;;5.30;;
26106;SDS011;13866;50.748;12.630;2022-12-22T00:18:03;5.60;;;5.30;;
26106;SDS011;13866;50.748;12.630;2022-12-22T00:20:47;9.50;;;4.80;;
26106;SDS011;13866;50.748;12.630;2022-12-22T00:23:31;5.33;;;5.13;;
26106;SDS011;13866;50.748;12.630;2022-12-22T00:26:16;4.63;;;4.57;;
26106;SDS011;13866;50.748;12.630;2022-12-22T00:29:00;4.80;;;4.40;;
26106;SDS011;13866;50.748;12.630;2022-12-22T00:31:45;5.30;;;4.90;;
26106;SDS011;13866;50.748;12.630;2022-12-22T00:34:29;4.07;;;4.07;;
26106;SDS011;13866;50.748;12.630;2022-12-22T00:37:20;3.83;;;3.83;;
26106;SDS011;13866;50.748;12.630;2022-12-22T00:40:07;4.90;;;4.90;;
26106;SDS011;13866;50.748;12.630;2022-12-22T00:42:59;4.67;;;4.27;;
26106;SDS011;13866;50.748;12.630;2022-12-22T00:45:43;4.63;;;4.53;;
26106;SDS011;13866;50.748;12.630;2022-12-22T00:48:27;4.47;;;4.37;;
26106;SDS011;13866;50.748;12.630;2022-12-22T00:51:11;4.50;;;4.40;;
26106;SDS011;13866;50.748;12.630;2022-12-22T00:53:55;4.50;;;4.50;;
26106;SDS011;13866;50.748;12.630;2022-12-22T00:56:39;4.13;;;4.13;;
26106;SDS011;13866;50.748;12.630;2022-12-22T00:59:24;4.20;;;4.20;;
26106;SDS011;13866;50.748;12.630;2022-12-22T01:02:10;4.60;;;4.50;;
26106;SDS011;13866;50.748;12.630;2022-12-22T01:04:55;4.00;;;4.00;;
26106;SDS011;13866;50.748;12.630;2022-12-22T01:07:39;3.77;;;3.77;;
26106;SDS011;13866;50.748;12.630;2022-12-22T01:10:23;4.50;;;4.30;;
26106;SDS011;13866;50.748;12.630;2022-12-22T01:13:12;4.07;;;3.87;;
26106;SDS011;13866;50.748;12.630;2022-12-22T01:15:58;3.57;;;3.47;;
26106;SDS011;13866;50.748;12.630;2022-12-22T01:18:42;4.27;;;4.07;;
26106;SDS011;13866;50.748;12.630;2022-12-22T01:21:26;3.27;;;3.27;;
26106;SDS011;13866;50.748;12.630;2022-12-22T01:24:13;3.63;;;3.53;;
26106;SDS011;13866;50.748;12.630;2022-12-22T01:26:59;3.60;;;3.50;;
26106;SDS011;13866;50.748;12.630;2022-12-22T01:29:43;3.70;;;3.60;;
26106;SDS011;13866;50.748;12.630;2022-12-22T01:32:28;3.27;;;3.23;;
26106;SDS011;13866;50.748;12.630;2022-12-22T01:35:19;3.70;;;3.70;;
26106;SDS011;13866;50.748;12.630;2022-12-22T01:38:05;3.20;;;3.20;;
26106;SDS011;13866;50.748;12.630;2022-12-22T01:40:49;4.10;;;4.00;;
26106;SDS011;13866;50.748;12.630;2022-12-22T01:43:34;4.00;;;3.87;;
26106;SDS011;13866;50.748;12.630;2022-12-22T01:49:11;3.37;;;3.33;;
26106;SDS011;13866;50.748;12.630;2022-12-22T01:52:03;3.50;;;3.50;;
26106;SDS011;13866;50.748;12.630;2022-12-22T01:54:49;3.23;;;3.13;;
26106;SDS011;13866;50.748;12.630;2022-12-22T01:57:34;3.00;;;2.90;;
26106;SDS011;13866;50.748;12.630;2022-12-22T02:00:19;3.33;;;3.33;;
26106;SDS011;13866;50.748;12.630;2022-12-22T02:03:12;3.33;;;3.23;;
26106;SDS011;13866;50.748;12.630;2022-12-22T02:06:04;3.27;;;3.27;;
26106;SDS011;13866;50.748;12.630;2022-12-22T02:09:03;3.20;;;3.20;;
26106;SDS011;13866;50.748;12.630;2022-12-22T02:12:10;3.03;;;2.83;;
26106;SDS011;13866;50.748;12.630;2022-12-22T02:15:50;3.23;;;3.23;;
26106;SDS011;13866;50.748;12.630;2022-12-22T02:18:25;3.10;;;3.00;;
26106;SDS011;13866;50.748;12.630;2022-12-22T02:21:16;2.57;;;2.33;;
26106;SDS011;13866;50.748;12.630;2022-12-22T02:24:16;3.00;;;3.00;;
26106;SDS011;13866;50.748;12.630;2022-12-22T02:27:05;3.13;;;2.90;;
26106;SDS011;13866;50.748;12.630;2022-12-22T02:29:51;3.43;;;3.20;;
26106;SDS011;13866;50.748;12.630;2022-12-22T02:32:40;10.57;;;2.90;;
26106;SDS011;13866;50.748;12.630;2022-12-22T02:35:26;3.03;;;2.93;;
26106;SDS011;13866;50.748;12.630;2022-12-22T02:41:38;2.73;;;2.73;;
26106;SDS011;13866;50.748;12.630;2022-12-22T02:47:32;2.90;;;2.90;;
26106;SDS011;13866;50.748;12.630;2022-12-22T02:53:53;2.83;;;2.83;;
26106;SDS011;13866;50.748;12.630;2022-12-22T02:56:39;3.13;;;3.13;;
26106;SDS011;13866;50.748;12.630;2022-12-22T02:59:24;2.80;;;2.80;;
26106;SDS011;13866;50.748;12.630;2022-12-22T03:02:08;2.80;;;2.80;;
26106;SDS011;13866;50.748;12.630;2022-12-22T03:04:52;2.50;;;2.40;;
26106;SDS011;13866;50.748;12.630;2022-12-22T03:07:35;3.70;;;3.40;;
26106;SDS011;13866;50.748;12.630;2022-12-22T03:10:20;2.97;;;2.97;;
26106;SDS011;13866;50.748;12.630;2022-12-22T03:13:03;2.77;;;2.77;;
26106;SDS011;13866;50.748;12.630;2022-12-22T03:15:47;2.80;;;2.80;;
26106;SDS011;13866;50.748;12.630;2022-12-22T03:18:31;2.93;;;2.93;;
26106;SDS011;13866;50.748;12.630;2022-12-22T03:21:15;4.20;;;4.10;;
26106;SDS011;13866;50.748;12.630;2022-12-22T03:23:59;3.40;;;3.30;;
26106;SDS011;13866;50.748;12.630;2022-12-22T03:26:43;2.30;;;2.30;;
26106;SDS011;13866;50.748;12.630;2022-12-22T03:29:09;4.23;;;3.23;;
26106;SDS011;13866;50.748;12.630;2022-12-22T03:31:34;3.20;;;3.10;;
26106;SDS011;13866;50.748;12.630;2022-12-22T03:34:00;3.00;;;2.90;;
26106;SDS011;13866;50.748;12.630;2022-12-22T03:36:25;3.17;;;3.07;;
26106;SDS011;13866;50.748;12.630;2022-12-22T03:38:50;3.20;;;3.00;;
26106;SDS011;13866;50.748;12.630;2022-12-22T03:41:16;2.90;;;2.90;;
26106;SDS011;13866;50.748;12.630;2022-12-22T03:44:00;2.97;;;2.97;;
26106;SDS011;13866;50.748;12.630;2022-12-22T03:46:44;3.13;;;3.03;;
26106;SDS011;13866;50.748;12.630;2022-12-22T03:49:10;2.70;;;2.60;;
26106;SDS011;13866;50.748;12.630;2022-12-22T03:51:45;2.63;;;2.63;;
26106;SDS011;13866;50.748;12.630;2022-12-22T03:54:13;2.77;;;2.70;;
26106;SDS011;13866;50.748;12.630;2022-12-22T03:56:45;3.23;;;3.13;;
26106;SDS011;13866;50.748;12.630;2022-12-22T03:59:12;2.50;;;2.50;;
26106;SDS011;13866;50.748;12.630;2022-12-22T04:01:45;2.90;;;2.80;;
26106;SDS011;13866;50.748;12.630;2022-12-22T04:04:13;2.53;;;2.47;;
26106;SDS011;13866;50.748;12.630;2022-12-22T04:06:40;2.97;;;2.97;;
26106;SDS011;13866;50.748;12.630;2022-12-22T04:09:06;2.70;;;2.70;;
26106;SDS011;13866;50.748;12.630;2022-12-22T04:11:31;2.70;;;2.60;;
26106;SDS011;13866;50.748;12.630;2022-12-22T04:14:15;2.80;;;2.53;;
26106;SDS011;13866;50.748;12.630;2022-12-22T04:16:41;2.17;;;2.17;;
26106;SDS011;13866;50.748;12.630;2022-12-22T04:19:07;2.83;;;2.73;;
26106;SDS011;13866;50.748;12.630;2022-12-22T04:21:33;3.23;;;3.10;;
26106;SDS011;13866;50.748;12.630;2022-12-22T04:23:59;3.67;;;3.40;;
26106;SDS011;13866;50.748;12.630;2022-12-22T04:26:26;2.90;;;2.80;;
26106;SDS011;13866;50.748;12.630;2022-12-22T04:28:52;3.03;;;2.80;;
26106;SDS011;13866;50.748;12.630;2022-12-22T04:31:18;3.27;;;2.50;;
26106;SDS011;13866;50.748;12.630;2022-12-22T04:33:44;2.90;;;2.90;;
26106;SDS011;13866;50.748;12.630;2022-12-22T04:36:10;2.37;;;2.37;;
26106;SDS011;13866;50.748;12.630;2022-12-22T04:38:36;2.37;;;2.37;;
26106;SDS011;13866;50.748;12.630;2022-12-22T04:41:02;2.67;;;2.57;;
26106;SDS011;13866;50.748;12.630;2022-12-22T04:43:27;2.80;;;2.80;;
26106;SDS011;13866;50.748;12.630;2022-12-22T04:45:53;2.47;;;2.37;;
26106;SDS011;13866;50.748;12.630;2022-12-22T04:48:20;2.60;;;2.33;;
26106;SDS011;13866;50.748;12.630;2022-12-22T04:50:50;2.07;;;2.07;;
26106;SDS011;13866;50.748;12.630;2022-12-22T04:53:17;2.80;;;2.60;;
26106;SDS011;13866;50.748;12.630;2022-12-22T04:55:52;2.50;;;2.50;;
26106;SDS011;13866;50.748;12.630;2022-12-22T04:58:20;2.20;;;2.20;;
26106;SDS011;13866;50.748;12.630;2022-12-22T05:00:46;2.77;;;2.67;;
26106;SDS011;13866;50.748;12.630;2022-12-22T05:03:11;2.10;;;2.10;;
26106;SDS011;13866;50.748;12.630;2022-12-22T05:05:38;2.47;;;2.47;;
26106;SDS011;13866;50.748;12.630;2022-12-22T05:08:04;2.57;;;2.57;;
26106;SDS011;13866;50.748;12.630;2022-12-22T05:10:30;1.90;;;1.90;;
26106;SDS011;13866;50.748;12.630;2022-12-22T05:12:55;2.17;;;2.17;;
26106;SDS011;13866;50.748;12.630;2022-12-22T05:15:22;2.53;;;2.43;;
26106;SDS011;13866;50.748;12.630;2022-12-22T05:17:52;2.00;;;2.00;;
26106;SDS011;13866;50.748;12.630;2022-12-22T05:20:18;2.83;;;2.83;;
26106;SDS011;13866;50.748;12.630;2022-12-22T05:22:45;1.90;;;1.80;;
26106;SDS011;13866;50.748;12.630;2022-12-22T05:25:11;2.20;;;2.20;;
26106;SDS011;13866;50.748;12.630;2022-12-22T05:27:40;2.10;;;2.10;;
26106;SDS011;13866;50.748;12.630;2022-12-22T05:30:06;1.80;;;1.80;;
26106;SDS011;13866;50.748;12.630;2022-12-22T05:32:32;1.60;;;1.50;;
26106;SDS011;13866;50.748;12.630;2022-12-22T05:34:58;1.87;;;1.87;;
26106;SDS011;13866;50.748;12.630;2022-12-22T05:37:23;1.50;;;1.50;;
26106;SDS011;13866;50.748;12.630;2022-12-22T05:39:49;1.77;;;1.67;;
26106;SDS011;13866;50.748;12.630;2022-12-22T05:42:14;1.60;;;1.50;;
26106;SDS011;13866;50.748;12.630;2022-12-22T05:44:59;1.53;;;1.53;;
26106;SDS011;13866;50.748;12.630;2022-12-22T05:47:33;1.50;;;1.50;;
26106;SDS011;13866;50.748;12.630;2022-12-22T05:49:59;1.70;;;1.70;;
26106;SDS011;13866;50.748;12.630;2022-12-22T05:52:24;1.50;;;1.50;;
26106;SDS011;13866;50.748;12.630;2022-12-22T05:54:50;2.40;;;2.40;;
26106;SDS011;13866;50.748;12.630;2022-12-22T05:57:15;1.77;;;1.77;;
26106;SDS011;13866;50.748;12.630;2022-12-22T05:59:41;1.60;;;1.60;;
26106;SDS011;13866;50.748;12.630;2022-12-22T06:02:06;1.70;;;1.70;;
26106;SDS011;13866;50.748;12.630;2022-12-22T06:04:32;1.73;;;1.73;;
26106;SDS011;13866;50.748;12.630;2022-12-22T06:06:57;2.70;;;1.60;;
26106;SDS011;13866;50.748;12.630;2022-12-22T06:09:23;1.70;;;1.70;;
26106;SDS011;13866;50.748;12.630;2022-12-22T06:11:48;2.10;;;2.00;;
26106;SDS011;13866;50.748;12.630;2022-12-22T06:14:13;1.30;;;1.30;;
26106;SDS011;13866;50.748;12.630;2022-12-22T06:16:39;2.53;;;2.53;;
26106;SDS011;13866;50.748;12.630;2022-12-22T06:19:04;1.77;;;1.67;;
26106;SDS011;13866;50.748;12.630;2022-12-22T06:21:30;1.37;;;1.37;;
26106;SDS011;13866;50.748;12.630;2022-12-22T06:23:55;1.80;;;1.80;;
26106;SDS011;13866;50.748;12.630;2022-12-22T06:26:21;3.00;;;2.90;;
26106;SDS011;13866;50.748;12.630;2022-12-22T06:28:46;1.73;;;1.73;;
26106;SDS011;13866;50.748;12.630;2022-12-22T06:31:12;1.70;;;1.70;;
26106;SDS011;13866;50.748;12.630;2022-12-22T06:33:37;1.60;;;1.60;;
26106;SDS011;13866;50.748;12.630;2022-12-22T06:36:04;1.87;;;1.87;;
26106;SDS011;13866;50.748;12.630;2022-12-22T06:38:30;1.37;;;1.37;;
26106;SDS011;13866;50.748;12.630;2022-12-22T06:40:56;1.30;;;1.30;;
26106;SDS011;13866;50.748;12.630;2022-12-22T06:43:21;1.47;;;1.47;;
26106;SDS011;13866;50.748;12.630;2022-12-22T06:45:47;1.73;;;1.73;;
26106;SDS011;13866;50.748;12.630;2022-12-22T06:48:12;1.47;;;1.47;;
26106;SDS011;13866;50.748;12.630;2022-12-22T06:50:38;1.20;;;1.20;;
26106;SDS011;13866;50.748;12.630;2022-12-22T06:53:04;1.43;;;1.43;;
26106;SDS011;13866;50.748;12.630;2022-12-22T06:55:30;1.20;;;1.20;;
26106;SDS011;13866;50.748;12.630;2022-12-22T06:57:56;1.70;;;1.70;;
26106;SDS011;13866;50.748;12.630;2022-12-22T07:00:21;5.50;;;1.30;;
26106;SDS011;13866;50.748;12.630;2022-12-22T07:02:47;1.57;;;1.57;;
26106;SDS011;13866;50.748;12.630;2022-12-22T07:05:12;1.57;;;1.50;;
26106;SDS011;13866;50.748;12.630;2022-12-22T07:07:39;1.30;;;1.30;;
26106;SDS011;13866;50.748;12.630;2022-12-22T07:10:05;1.90;;;1.90;;
26106;SDS011;13866;50.748;12.630;2022-12-22T07:12:31;2.00;;;2.00;;
26106;SDS011;13866;50.748;12.630;2022-12-22T07:14:56;1.87;;;1.77;;
26106;SDS011;13866;50.748;12.630;2022-12-22T07:17:21;2.20;;;1.57;;
26106;SDS011;13866;50.748;12.630;2022-12-22T07:19:47;2.10;;;1.97;;
26106;SDS011;13866;50.748;12.630;2022-12-22T07:22:12;2.47;;;2.37;;
26106;SDS011;13866;50.748;12.630;2022-12-22T07:24:38;1.70;;;1.70;;
26106;SDS011;13866;50.748;12.630;2022-12-22T07:27:03;2.03;;;1.93;;
26106;SDS011;13866;50.748;12.630;2022-12-22T07:29:29;2.20;;;2.10;;
26106;SDS011;13866;50.748;12.630;2022-12-22T07:31:54;2.30;;;2.10;;
26106;SDS011;13866;50.748;12.630;2022-12-22T07:34:20;2.20;;;2.00;;
26106;SDS011;13866;50.748;12.630;2022-12-22T07:36:45;1.80;;;1.80;;
26106;SDS011;13866;50.748;12.630;2022-12-22T07:39:11;1.90;;;1.90;;
26106;SDS011;13866;50.748;12.630;2022-12-22T07:41:36;2.60;;;2.60;;
26106;SDS011;13866;50.748;12.630;2022-12-22T07:44:21;2.67;;;2.43;;
26106;SDS011;13866;50.748;12.630;2022-12-22T07:46:46;2.40;;;2.23;;
26106;SDS011;13866;50.748;12.630;2022-12-22T07:49:12;4.07;;;2.07;;
26106;SDS011;13866;50.748;12.630;2022-12-22T07:51:56;2.03;;;2.03;;
26106;SDS011;13866;50.748;12.630;2022-12-22T07:54:23;2.30;;;2.10;;
26106;SDS011;13866;50.748;12.630;2022-12-22T07:56:49;4.33;;;2.20;;
26106;SDS011;13866;50.748;12.630;2022-12-22T07:59:15;2.43;;;2.23;;
26106;SDS011;13866;50.748;12.630;2022-12-22T08:01:41;2.00;;;1.43;;
26106;SDS011;13866;50.748;12.630;2022-12-22T08:04:10;1.97;;;1.70;;
26106;SDS011;13866;50.748;12.630;2022-12-22T08:06:36;3.07;;;2.90;;
26106;SDS011;13866;50.748;12.630;2022-12-22T08:09:03;1.83;;;1.70;;
26106;SDS011;13866;50.748;12.630;2022-12-22T08:11:29;2.27;;;1.70;;
26106;SDS011;13866;50.748;12.630;2022-12-22T08:13:54;4.73;;;2.97;;
26106;SDS011;13866;50.748;12.630;2022-12-22T08:16:20;1.93;;;1.83;;
26106;SDS011;13866;50.748;12.630;2022-12-22T08:18:46;1.40;;;1.40;;
26106;SDS011;13866;50.748;12.630;2022-12-22T08:21:11;2.00;;;1.40;;
26106;SDS011;13866;50.748;12.630;2022-12-22T08:23:37;2.13;;;1.80;;
26106;SDS011;13866;50.748;12.630;2022-12-22T08:26:07;1.53;;;1.50;;
26106;SDS011;13866;50.748;12.630;2022-12-22T08:28:49;1.70;;;1.70;;
26106;SDS011;13866;50.748;12.630;2022-12-22T08:31:39;1.93;;;1.93;;
26106;SDS011;13866;50.748;12.630;2022-12-22T08:34:06;3.50;;;2.10;;
26106;SDS011;13866;50.748;12.630;2022-12-22T08:36:35;1.67;;;1.67;;
26106;SDS011;13866;50.748;12.630;2022-12-22T08:39:04;2.20;;;2.10;;
26106;SDS011;13866;50.748;12.630;2022-12-22T08:41:30;1.67;;;1.67;;
26106;SDS011;13866;50.748;12.630;2022-12-22T08:44:15;1.43;;;1.43;;
26106;SDS011;13866;50.748;12.630;2022-12-22T08:46:52;4.10;;;4.00;;
26106;SDS011;13866;50.748;12.630;2022-12-22T08:49:18;1.87;;;1.87;;
26106;SDS011;13866;50.748;12.630;2022-12-22T08:51:44;2.00;;;2.00;;
26106;SDS011;13866;50.748;12.630;2022-12-22T08:54:10;2.33;;;2.10;;
26106;SDS011;13866;50.748;12.630;2022-12-22T08:56:36;1.57;;;1.57;;
26106;SDS011;13866;50.748;12.630;2022-12-22T08:59:03;2.10;;;2.00;;
26106;SDS011;13866;50.748;12.630;2022-12-22T09:01:32;1.93;;;1.83;;
26106;SDS011;13866;50.748;12.630;2022-12-22T09:04:00;1.80;;;1.70;;
26106;SDS011;13866;50.748;12.630;2022-12-22T09:06:27;1.90;;;1.80;;
26106;SDS011;13866;50.748;12.630;2022-12-22T09:08:57;1.70;;;1.70;;
26106;SDS011;13866;50.748;12.630;2022-12-22T09:11:24;2.13;;;2.03;;
26106;SDS011;13866;50.748;12.630;2022-12-22T09:13:51;6.63;;;1.80;;
26106;SDS011;13866;50.748;12.630;2022-12-22T09:16:17;1.50;;;1.50;;
26106;SDS011;13866;50.748;12.630;2022-12-22T09:18:43;1.73;;;1.73;;
26106;SDS011;13866;50.748;12.630;2022-12-22T09:21:09;1.43;;;1.43;;
26106;SDS011;13866;50.748;12.630;2022-12-22T09:23:34;1.40;;;1.40;;
26106;SDS011;13866;50.748;12.630;2022-12-22T09:26:05;1.67;;;1.57;;
26106;SDS011;13866;50.748;12.630;2022-12-22T09:28:34;9.40;;;1.50;;
26106;SDS011;13866;50.748;12.630;2022-12-22T09:31:00;1.40;;;1.40;;
26106;SDS011;13866;50.748;12.630;2022-12-22T09:33:26;1.37;;;1.37;;
26106;SDS011;13866;50.748;12.630;2022-12-22T09:35:52;1.30;;;1.30;;
26106;SDS011;13866;50.748;12.630;2022-12-22T09:38:17;1.67;;;1.67;;
26106;SDS011;13866;50.748;12.630;2022-12-22T09:40:42;1.03;;;1.03;;
26106;SDS011;13866;50.748;12.630;2022-12-22T09:43:12;2.50;;;1.40;;
26106;SDS011;13866;50.748;12.630;2022-12-22T09:45:42;3.10;;;2.03;;
26106;SDS011;13866;50.748;12.630;2022-12-22T09:48:11;1.17;;;1.17;;
26106;SDS011;13866;50.748;12.630;2022-12-22T09:50:39;1.30;;;1.30;;
26106;SDS011;13866;50.748;12.630;2022-12-22T09:53:06;1.10;;;1.10;;
26106;SDS011;13866;50.748;12.630;2022-12-22T09:55:41;0.90;;;0.90;;
26106;SDS011;13866;50.748;12.630;2022-12-22T09:58:14;0.70;;;0.70;;
26106;SDS011;13866;50.748;12.630;2022-12-22T10:00:43;1.00;;;0.90;;
26106;SDS011;13866;50.748;12.630;2022-12-22T10:09:00;0.90;;;0.90;;
26106;SDS011;13866;50.748;12.630;2022-12-22T10:11:53;0.93;;;0.93;;
26106;SDS011;13866;50.748;12.630;2022-12-22T10:14:26;1.13;;;1.13;;
26106;SDS011;13866;50.748;12.630;2022-12-22T10:17:13;0.80;;;0.80;;
26106;SDS011;13866;50.748;12.630;2022-12-22T10:19:39;1.07;;;1.07;;
26106;SDS011;13866;50.748;12.630;2022-12-22T10:22:19;0.70;;;0.70;;
26106;SDS011;13866;50.748;12.630;2022-12-22T10:24:54;0.80;;;0.80;;
26106;SDS011;13866;50.748;12.630;2022-12-22T10:27:21;1.10;;;1.10;;
26106;SDS011;13866;50.748;12.630;2022-12-22T10:29:49;1.90;;;0.90;;
26106;SDS011;13866;50.748;12.630;2022-12-22T10:32:16;0.77;;;0.77;;
26106;SDS011;13866;50.748;12.630;2022-12-22T10:34:57;0.83;;;0.83;;
26106;SDS011;13866;50.748;12.630;2022-12-22T10:37:32;5.83;;;0.90;;
26106;SDS011;13866;50.748;12.630;2022-12-22T10:40:16;1.00;;;1.00;;
26106;SDS011;13866;50.748;12.630;2022-12-22T10:42:44;1.00;;;1.00;;
26106;SDS011;13866;50.748;12.630;2022-12-22T10:45:18;1.03;;;1.00;;
26106;SDS011;13866;50.748;12.630;2022-12-22T10:47:51;1.17;;;1.17;;
26106;SDS011;13866;50.748;12.630;2022-12-22T10:50:18;3.70;;;3.40;;
26106;SDS011;13866;50.748;12.630;2022-12-22T10:52:49;6.97;;;6.30;;
26106;SDS011;13866;50.748;12.630;2022-12-22T10:55:20;1.83;;;1.83;;
26106;SDS011;13866;50.748;12.630;2022-12-22T11:00:34;2.60;;;1.30;;
26106;SDS011;13866;50.748;12.630;2022-12-22T11:03:02;1.43;;;1.13;;
26106;SDS011;13866;50.748;12.630;2022-12-22T11:05:28;0.90;;;0.90;;
26106;SDS011;13866;50.748;12.630;2022-12-22T11:07:56;1.37;;;1.30;;
26106;SDS011;13866;50.748;12.630;2022-12-22T11:13:01;2.73;;;1.10;;
26106;SDS011;13866;50.748;12.630;2022-12-22T11:15:47;1.30;;;1.30;;
26106;SDS011;13866;50.748;12.630;2022-12-22T11:23:32;1.43;;;1.30;;
26106;SDS011;13866;50.748;12.630;2022-12-22T11:39:48;1.40;;;1.40;;
26106;SDS011;13866;50.748;12.630;2022-12-22T11:42:36;3.80;;;1.53;;
26106;SDS011;13866;50.748;12.630;2022-12-22T11:45:23;1.20;;;1.20;;
26106;SDS011;13866;50.748;12.630;2022-12-22T11:50:39;1.20;;;1.20;;
26106;SDS011;13866;50.748;12.630;2022-12-22T11:53:27;0.93;;;0.93;;
26106;SDS011;13866;50.748;12.630;2022-12-22T11:56:19;1.30;;;1.20;;
26106;SDS011;13866;50.748;12.630;2022-12-22T11:58:51;1.10;;;1.10;;
26106;SDS011;13866;50.748;12.630;2022-12-22T12:01:34;1.00;;;1.00;;
26106;SDS011;13866;50.748;12.630;2022-12-22T12:09:57;1.63;;;1.27;;
26106;SDS011;13866;50.748;12.630;2022-12-22T12:15:30;1.17;;;1.07;;
26106;SDS011;13866;50.748;12.630;2022-12-22T12:18:14;2.40;;;0.90;;
26106;SDS011;13866;50.748;12.630;2022-12-22T12:24:13;1.57;;;1.47;;
26106;SDS011;13866;50.748;12.630;2022-12-22T12:26:57;4.97;;;1.37;;
26106;SDS011;13866;50.748;12.630;2022-12-22T12:32:26;3.33;;;1.57;;
26106;SDS011;13866;50.748;12.630;2022-12-22T12:35:03;2.00;;;1.20;;
26106;SDS011;13866;50.748;12.630;2022-12-22T12:37:46;2.43;;;1.10;;
26106;SDS011;13866;50.748;12.630;2022-12-22T12:40:26;1.10;;;1.00;;
26106;SDS011;13866;50.748;12.630;2022-12-22T12:43:02;1.07;;;1.07;;
26106;SDS011;13866;50.748;12.630;2022-12-22T12:45:32;1.23;;;1.17;;
26106;SDS011;13866;50.748;12.630;2022-12-22T12:50:44;1.63;;;1.53;;
26106;SDS011;13866;50.748;12.630;2022-12-22T12:53:18;1.20;;;1.10;;
26106;SDS011;13866;50.748;12.630;2022-12-22T12:55:52;1.33;;;1.13;;
26106;SDS011;13866;50.748;12.630;2022-12-22T13:01:12;2.03;;;1.10;;
26106;SDS011;13866;50.748;12.630;2022-12-22T13:04:58;0.90;;;0.90;;
26106;SDS011;13866;50.748;12.630;2022-12-22T13:08:03;1.90;;;0.93;;
26106;SDS011;13866;50.748;12.630;2022-12-22T13:10:24;3.17;;;0.80;;
26106;SDS011;13866;50.748;12.630;2022-12-22T13:12:52;3.40;;;1.37;;
26106;SDS011;13866;50.748;12.630;2022-12-22T13:15:31;1.27;;;1.20;;
26106;SDS011;13866;50.748;12.630;2022-12-22T13:18:03;2.43;;;1.23;;
26106;SDS011;13866;50.748;12.630;2022-12-22T13:23:42;3.70;;;2.03;;
26106;SDS011;13866;50.748;12.630;2022-12-22T13:26:22;3.23;;;2.23;;
26106;SDS011;13866;50.748;12.630;2022-12-22T13:29:02;1.80;;;1.00;;
26106;SDS011;13866;50.748;12.630;2022-12-22T13:31:53;0.93;;;0.90;;
26106;SDS011;13866;50.748;12.630;2022-12-22T13:37:13;4.13;;;1.40;;
26106;SDS011;13866;50.748;12.630;2022-12-22T13:39:42;1.73;;;1.10;;
26106;SDS011;13866;50.748;12.630;2022-12-22T13:47:55;2.93;;;1.03;;
26106;SDS011;13866;50.748;12.630;2022-12-22T13:50:25;1.27;;;1.17;;
26106;SDS011;13866;50.748;12.630;2022-12-22T13:52:56;1.13;;;1.13;;
26106;SDS011;13866;50.748;12.630;2022-12-22T13:55:24;1.03;;;1.03;;
26106;SDS011;13866;50.748;12.630;2022-12-22T13:57:52;0.80;;;0.80;;
26106;SDS011;13866;50.748;12.630;2022-12-22T14:00:19;3.80;;;0.97;;
26106;SDS011;13866;50.748;12.630;2022-12-22T14:02:47;1.73;;;1.00;;
26106;SDS011;13866;50.748;12.630;2022-12-22T14:05:13;1.00;;;1.00;;
26106;SDS011;13866;50.748;12.630;2022-12-22T14:07:39;0.77;;;0.77;;
26106;SDS011;13866;50.748;12.630;2022-12-22T14:10:30;1.30;;;0.80;;
26106;SDS011;13866;50.748;12.630;2022-12-22T14:13:16;1.53;;;1.13;;
26106;SDS011;13866;50.748;12.630;2022-12-22T14:15:44;2.03;;;1.93;;
26106;SDS011;13866;50.748;12.630;2022-12-22T14:18:14;1.10;;;1.00;;
26106;SDS011;13866;50.748;12.630;2022-12-22T14:20:44;1.67;;;1.57;;
26106;SDS011;13866;50.748;12.630;2022-12-22T14:23:16;2.00;;;1.30;;
26106;SDS011;13866;50.748;12.630;2022-12-22T14:25:46;1.50;;;1.50;;
26106;SDS011;13866;50.748;12.630;2022-12-22T14:28:26;0.87;;;0.87;;
26106;SDS011;13866;50.748;12.630;2022-12-22T14:30:56;1.20;;;1.20;;
26106;SDS011;13866;50.748;12.630;2022-12-22T14:36:05;1.50;;;1.50;;
26106;SDS011;13866;50.748;12.630;2022-12-22T14:38:54;1.53;;;1.53;;
26106;SDS011;13866;50.748;12.630;2022-12-22T14:41:41;1.07;;;1.07;;
26106;SDS011;13866;50.748;12.630;2022-12-22T14:44:19;1.60;;;1.17;;
26106;SDS011;13866;50.748;12.630;2022-12-22T14:49:41;1.37;;;1.03;;
26106;SDS011;13866;50.748;12.630;2022-12-22T14:52:32;1.60;;;0.80;;
26106;SDS011;13866;50.748;12.630;2022-12-22T14:55:19;0.70;;;0.70;;
26106;SDS011;13866;50.748;12.630;2022-12-22T15:00:28;0.97;;;0.97;;
26106;SDS011;13866;50.748;12.630;2022-12-22T15:03:01;1.10;;;1.10;;
26106;SDS011;13866;50.748;12.630;2022-12-22T15:05:36;1.37;;;1.37;;
26106;SDS011;13866;50.748;12.630;2022-12-22T15:08:05;1.00;;;1.00;;
26106;SDS011;13866;50.748;12.630;2022-12-22T15:10:51;1.20;;;1.20;;
26106;SDS011;13866;50.748;12.630;2022-12-22T15:13:20;1.20;;;1.20;;
26106;SDS011;13866;50.748;12.630;2022-12-22T15:15:50;1.00;;;1.00;;
26106;SDS011;13866;50.748;12.630;2022-12-22T15:18:16;1.13;;;0.93;;
26106;SDS011;13866;50.748;12.630;2022-12-22T15:20:44;0.90;;;0.90;;
26106;SDS011;13866;50.748;12.630;2022-12-22T15:23:10;1.33;;;1.33;;
26106;SDS011;13866;50.748;12.630;2022-12-22T15:25:38;1.37;;;1.37;;
26106;SDS011;13866;50.748;12.630;2022-12-22T15:28:03;1.20;;;1.20;;
26106;SDS011;13866;50.748;12.630;2022-12-22T15:30:29;1.20;;;1.20;;
26106;SDS011;13866;50.748;12.630;2022-12-22T15:32:54;1.63;;;1.63;;
26106;SDS011;13866;50.748;12.630;2022-12-22T15:35:24;1.67;;;1.67;;
26106;SDS011;13866;50.748;12.630;2022-12-22T15:37:54;1.67;;;1.67;;
26106;SDS011;13866;50.748;12.630;2022-12-22T15:40:21;1.90;;;1.90;;
26106;SDS011;13866;50.748;12.630;2022-12-22T15:42:48;3.07;;;2.90;;
26106;SDS011;13866;50.748;12.630;2022-12-22T15:45:14;1.70;;;1.70;;
26106;SDS011;13866;50.748;12.630;2022-12-22T15:47:40;2.47;;;2.37;;
26106;SDS011;13866;50.748;12.630;2022-12-22T15:50:14;2.53;;;2.40;;
26106;SDS011;13866;50.748;12.630;2022-12-22T15:52:52;1.70;;;1.60;;
26106;SDS011;13866;50.748;12.630;2022-12-22T15:55:20;2.87;;;2.77;;
26106;SDS011;13866;50.748;12.630;2022-12-22T15:57:48;3.17;;;3.07;;
26106;SDS011;13866;50.748;12.630;2022-12-22T16:00:15;3.57;;;3.47;;
26106;SDS011;13866;50.748;12.630;2022-12-22T16:02:41;2.93;;;2.90;;
26106;SDS011;13866;50.748;12.630;2022-12-22T16:05:07;2.63;;;2.63;;
26106;SDS011;13866;50.748;12.630;2022-12-22T16:07:34;3.20;;;3.10;;
26106;SDS011;13866;50.748;12.630;2022-12-22T16:10:00;2.90;;;2.90;;
26106;SDS011;13866;50.748;12.630;2022-12-22T16:12:27;3.33;;;3.33;;
26106;SDS011;13866;50.748;12.630;2022-12-22T16:14:54;3.87;;;3.50;;
26106;SDS011;13866;50.748;12.630;2022-12-22T16:17:24;3.70;;;3.60;;
26106;SDS011;13866;50.748;12.630;2022-12-22T16:19:52;2.40;;;2.40;;
26106;SDS011;13866;50.748;12.630;2022-12-22T16:22:18;3.83;;;3.83;;
26106;SDS011;13866;50.748;12.630;2022-12-22T16:24:47;4.10;;;4.00;;
26106;SDS011;13866;50.748;12.630;2022-12-22T16:27:14;3.40;;;3.23;;
26106;SDS011;13866;50.748;12.630;2022-12-22T16:29:41;3.33;;;3.33;;
26106;SDS011;13866;50.748;12.630;2022-12-22T16:32:25;3.87;;;3.53;;
26106;SDS011;13866;50.748;12.630;2022-12-22T16:34:53;3.53;;;3.53;;
26106;SDS011;13866;50.748;12.630;2022-12-22T16:37:24;3.70;;;3.60;;